createdAt,value
2023-03-29T00:02:30.857Z,100.00
2023-03-29T00:06:43.443Z,100.00
2023-03-29T00:11:06.085Z,100.00
2023-03-29T00:15:19.104Z,100.00
2023-03-29T00:19:36.344Z,100.00
2023-03-29T00:23:48.878Z,100.00
2023-03-29T00:28:01.994Z,100.00
2023-03-29T00:32:14.998Z,100.00
2023-03-29T00:36:28.632Z,100.00
2023-03-29T00:40:47.791Z,100.00
2023-03-29T00:45:06.783Z,100.00
2023-03-29T00:49:19.281Z,100.00
2023-03-29T00:53:40.805Z,100.00
2023-03-29T00:57:56.570Z,100.00
2023-03-29T01:02:10.237Z,100.00
2023-03-29T01:06:25.884Z,100.00
2023-03-29T01:10:38.220Z,100.00
2023-03-29T01:15:07.893Z,100.00
2023-03-29T01:19:25.910Z,100.00
2023-03-29T01:24:12.377Z,100.00
2023-03-29T01:29:06.390Z,100.00
2023-03-29T01:33:29.033Z,100.00
2023-03-29T01:37:51.629Z,100.00
2023-03-29T01:42:15.494Z,100.00
2023-03-29T01:46:46.811Z,100.00
2023-03-29T01:51:07.995Z,100.00
2023-03-29T01:55:26.202Z,100.00
2023-03-29T01:59:43.602Z,100.00
2023-03-29T02:04:03.863Z,100.00
2023-03-29T02:08:18.532Z,100.00
2023-03-29T02:12:31.881Z,100.00
2023-03-29T02:16:46.920Z,100.00
2023-03-29T02:21:00.145Z,100.00
2023-03-29T02:25:13.732Z,100.00
2023-03-29T02:29:27.068Z,100.00
2023-03-29T02:33:44.310Z,100.00
2023-03-29T02:37:58.168Z,100.00
2023-03-29T02:42:21.161Z,100.00
2023-03-29T02:46:44.659Z,100.00
2023-03-29T02:51:02.577Z,100.00
2023-03-29T02:55:19.664Z,100.00
2023-03-29T02:59:32.139Z,100.00
2023-03-29T03:03:45.943Z,100.00
2023-03-29T03:07:59.208Z,100.00
2023-03-29T03:12:11.701Z,100.00
2023-03-29T03:16:24.701Z,100.00
2023-03-29T03:20:37.262Z,100.00
2023-03-29T03:24:50.090Z,100.00
2023-03-29T03:29:03.124Z,100.00
2023-03-29T03:33:15.600Z,100.00
2023-03-29T03:37:29.393Z,100.00
2023-03-29T03:41:41.837Z,100.00
2023-03-29T03:45:54.599Z,100.00
2023-03-29T03:50:09.862Z,100.00
2023-03-29T03:54:22.286Z,100.00
2023-03-29T03:58:35.295Z,100.00
2023-03-29T04:02:49.054Z,100.00
2023-03-29T04:07:04.355Z,100.00
2023-03-29T04:11:16.831Z,100.00
2023-03-29T04:15:30.450Z,100.00
2023-03-29T04:19:42.958Z,100.00
2023-03-29T04:23:55.462Z,100.00
2023-03-29T04:28:08.607Z,100.00
2023-03-29T04:32:21.157Z,100.00
2023-03-29T04:36:40.232Z,100.00
2023-03-29T04:40:52.700Z,100.00
2023-03-29T04:45:08.132Z,100.00
2023-03-29T04:49:20.686Z,100.00
2023-03-29T04:53:33.343Z,100.00
2023-03-29T04:57:45.806Z,100.00
2023-03-29T05:02:08.409Z,100.00
2023-03-29T05:06:20.988Z,100.00
2023-03-29T05:10:33.460Z,100.00
2023-03-29T05:14:45.918Z,100.00
2023-03-29T05:18:59.599Z,100.00
2023-03-29T05:23:13.321Z,100.00
2023-03-29T05:27:26.273Z,100.00
2023-03-29T05:31:39.036Z,100.00
2023-03-29T05:36:01.259Z,100.00
2023-03-29T05:40:14.224Z,100.00
2023-03-29T05:44:26.729Z,100.00
2023-03-29T05:48:39.544Z,100.00
2023-03-29T05:53:02.049Z,100.00
2023-03-29T05:57:14.485Z,100.00
2023-03-29T06:01:27.015Z,100.00
2023-03-29T06:05:40.270Z,100.00
2023-03-29T06:09:52.740Z,100.00
2023-03-29T06:14:05.495Z,100.00
2023-03-29T06:18:28.474Z,100.00
2023-03-29T06:22:42.665Z,100.00
2023-03-29T06:26:55.136Z,100.00
2023-03-29T06:31:07.848Z,100.00
2023-03-29T06:35:20.460Z,100.00
2023-03-29T06:39:33.797Z,100.00
2023-03-29T06:43:46.280Z,100.00
2023-03-29T06:47:58.970Z,100.00
2023-03-29T06:52:11.869Z,100.00
2023-03-29T06:56:24.627Z,100.00
2023-03-29T07:00:39.797Z,100.00
2023-03-29T07:04:52.578Z,100.00
2023-03-29T07:09:07.410Z,100.00
2023-03-29T07:13:21.126Z,100.00
2023-03-29T07:17:33.602Z,100.00
2023-03-29T07:21:46.063Z,100.00
2023-03-29T07:25:58.530Z,100.00
2023-03-29T07:30:17.653Z,100.00
2023-03-29T07:34:30.820Z,100.00
2023-03-29T07:38:43.847Z,100.00
2023-03-29T07:42:57.879Z,100.00
2023-03-29T07:47:10.349Z,100.00
2023-03-29T07:51:23.393Z,100.00
2023-03-29T07:55:36.176Z,100.00
2023-03-29T07:59:48.707Z,100.00
2023-03-29T08:04:01.338Z,100.00
2023-03-29T08:08:14.968Z,100.00
2023-03-29T08:12:27.448Z,100.00
2023-03-29T08:16:40.067Z,100.00
2023-03-29T08:20:53.422Z,100.00
2023-03-29T08:25:07.775Z,100.00
2023-03-29T08:29:32.109Z,100.00
2023-03-29T08:33:45.214Z,100.00
2023-03-29T08:37:57.713Z,100.00
2023-03-29T08:42:26.360Z,100.00
2023-03-29T08:47:09.090Z,100.00
2023-03-29T08:51:43.706Z,100.00
2023-03-29T08:55:59.840Z,100.00
2023-03-29T09:00:29.275Z,100.00
2023-03-29T09:04:43.285Z,100.00
2023-03-29T09:09:14.974Z,100.00
2023-03-29T09:14:04.144Z,98.03
2023-03-29T09:18:16.722Z,95.70
2023-03-29T09:22:47.416Z,97.53
2023-03-29T09:27:34.178Z,95.56
2023-03-29T09:31:47.025Z,93.66
2023-03-29T09:36:03.172Z,94.35
2023-03-29T09:40:21.108Z,94.77
2023-03-29T09:44:46.482Z,91.62
2023-03-29T09:48:59.431Z,88.89
2023-03-29T09:53:19.388Z,84.94
2023-03-29T09:57:36.597Z,86.88
2023-03-29T10:01:49.154Z,86.38
2023-03-29T10:06:06.042Z,89.43
2023-03-29T10:10:28.474Z,86.75
2023-03-29T10:14:47.802Z,89.86
2023-03-29T10:19:35.919Z,82.42
2023-03-29T10:23:50.674Z,82.82
2023-03-29T10:28:18.382Z,80.11
2023-03-29T10:32:37.599Z,81.28
2023-03-29T10:37:00.072Z,76.15
2023-03-29T10:41:23.978Z,77.01
2023-03-29T10:45:38.523Z,68.85
2023-03-29T10:50:02.269Z,69.77
2023-03-29T10:54:18.102Z,72.22
2023-03-29T10:59:09.488Z,69.32
2023-03-29T11:03:44.551Z,67.08
2023-03-29T11:08:06.048Z,64.45
2023-03-29T11:12:53.580Z,62.77
2023-03-29T11:17:23.804Z,63.56
2023-03-29T11:22:25.474Z,61.87
2023-03-29T11:27:15.600Z,63.18
2023-03-29T11:32:01.307Z,57.10
2023-03-29T11:36:54.592Z,58.21
2023-03-29T11:41:16.468Z,57.36
2023-03-29T11:45:53.658Z,58.96
2023-03-29T11:50:20.494Z,55.13
2023-03-29T11:54:46.278Z,63.13
2023-03-29T11:59:06.719Z,56.58
2023-03-29T12:03:53.365Z,59.43
2023-03-29T12:08:34.475Z,56.45
2023-03-29T12:12:56.648Z,54.65
2023-03-29T12:17:17.940Z,53.58
2023-03-29T12:21:31.872Z,51.83
2023-03-29T12:26:18.330Z,54.39
2023-03-29T12:31:20.973Z,51.10
2023-03-29T12:36:50.995Z,50.44
2023-03-29T12:41:20.583Z,49.47
2023-03-29T12:45:44.229Z,51.91
2023-03-29T12:49:59.429Z,53.77
2023-03-29T12:54:24.049Z,54.01
2023-03-29T12:58:56.039Z,53.65
2023-03-29T13:03:29.982Z,52.47
2023-03-29T13:07:48.296Z,52.64
2023-03-29T13:12:12.052Z,52.18
2023-03-29T13:16:38.129Z,51.62
2023-03-29T13:21:07.171Z,51.88
2023-03-29T13:26:12.314Z,48.31
2023-03-29T13:30:46.527Z,48.52
2023-03-29T13:35:16.477Z,46.29
2023-03-29T13:39:32.726Z,47.96
2023-03-29T13:43:45.420Z,46.69
2023-03-29T13:48:42.231Z,48.71
2023-03-29T13:53:50.914Z,49.39
2023-03-29T13:58:29.994Z,46.96
2023-03-29T14:02:49.443Z,46.36
2023-03-29T14:07:03.186Z,47.13
2023-03-29T14:11:29.904Z,48.37
2023-03-29T14:15:53.464Z,48.71
2023-03-29T14:20:16.889Z,49.60
2023-03-29T14:24:38.982Z,47.15
2023-03-29T14:28:57.452Z,43.36
2023-03-29T14:33:15.006Z,42.99
2023-03-29T14:37:31.101Z,42.11
2023-03-29T14:41:57.758Z,42.71
2023-03-29T14:46:14.537Z,43.45
2023-03-29T14:50:37.266Z,44.22
2023-03-29T14:54:57.291Z,45.74
2023-03-29T14:59:43.454Z,46.14
2023-03-29T15:04:12.664Z,47.06
2023-03-29T15:08:38.523Z,48.71
2023-03-29T15:13:04.510Z,49.54
2023-03-29T15:17:51.240Z,50.74
2023-03-29T15:22:11.816Z,52.00
2023-03-29T15:26:36.939Z,52.74
2023-03-29T15:31:00.776Z,55.48
2023-03-29T15:35:25.680Z,56.97
2023-03-29T15:39:44.732Z,60.61
2023-03-29T15:43:57.211Z,70.54
2023-03-29T15:48:24.203Z,79.67
2023-03-29T15:52:37.231Z,83.60
2023-03-29T15:56:55.995Z,83.87
2023-03-29T16:01:37.413Z,85.87
2023-03-29T16:05:50.111Z,84.51
2023-03-29T16:10:02.771Z,83.71
2023-03-29T16:14:26.136Z,84.48
2023-03-29T16:18:39.497Z,87.33
2023-03-29T16:22:52.618Z,91.79
2023-03-29T16:27:05.404Z,88.36
2023-03-29T16:31:17.961Z,89.63
2023-03-29T16:35:33.660Z,91.24
2023-03-29T16:39:47.163Z,90.20
2023-03-29T16:44:00.914Z,89.43
2023-03-29T16:48:19.335Z,88.77
2023-03-29T16:52:32.291Z,91.25
2023-03-29T16:56:45.057Z,94.50
2023-03-29T17:00:58.488Z,100.00
2023-03-29T17:05:13.268Z,100.00
2023-03-29T17:09:28.367Z,100.00
2023-03-29T17:13:42.148Z,100.00
2023-03-29T17:17:54.648Z,100.00
2023-03-29T17:22:07.295Z,100.00
2023-03-29T17:26:19.718Z,100.00
2023-03-29T17:30:34.731Z,100.00
2023-03-29T17:34:48.700Z,100.00
2023-03-29T17:39:03.107Z,100.00
2023-03-29T17:43:15.626Z,100.00
2023-03-29T17:47:28.266Z,100.00
2023-03-29T17:51:41.134Z,100.00
2023-03-29T17:55:53.698Z,100.00
2023-03-29T18:00:13.660Z,100.00
2023-03-29T18:04:26.279Z,100.00
2023-03-29T18:08:39.555Z,100.00
2023-03-29T18:12:59.174Z,100.00
2023-03-29T18:17:11.899Z,100.00
2023-03-29T18:21:26.783Z,100.00
2023-03-29T18:25:39.610Z,100.00
2023-03-29T18:29:52.186Z,100.00
2023-03-29T18:34:04.846Z,100.00
2023-03-29T18:38:19.585Z,100.00
2023-03-29T18:42:32.121Z,100.00
2023-03-29T18:46:44.787Z,100.00
2023-03-29T18:50:58.699Z,100.00
2023-03-29T18:55:11.387Z,100.00
2023-03-29T18:59:23.910Z,100.00
2023-03-29T19:03:37.025Z,100.00
2023-03-29T19:07:49.633Z,100.00
2023-03-29T19:12:03.150Z,100.00
2023-03-29T19:16:15.605Z,100.00
2023-03-29T19:20:28.229Z,100.00
2023-03-29T19:24:40.748Z,100.00
2023-03-29T19:28:53.169Z,100.00
2023-03-29T19:33:05.750Z,100.00
2023-03-29T19:37:18.525Z,100.00
2023-03-29T19:41:31.189Z,100.00
2023-03-29T19:45:48.780Z,100.00
2023-03-29T19:50:02.531Z,100.00
2023-03-29T19:54:15.266Z,100.00
2023-03-29T19:58:27.759Z,100.00
2023-03-29T20:02:40.729Z,100.00
2023-03-29T20:06:53.156Z,100.00
2023-03-29T20:11:10.854Z,100.00
2023-03-29T20:15:27.163Z,100.00
2023-03-29T20:19:44.915Z,100.00
2023-03-29T20:23:58.134Z,100.00
2023-03-29T20:28:13.596Z,100.00
2023-03-29T20:32:26.145Z,100.00
2023-03-29T20:36:39.540Z,100.00
2023-03-29T20:40:52.082Z,100.00
2023-03-29T20:45:06.705Z,100.00
2023-03-29T20:49:19.133Z,100.00
2023-03-29T20:53:43.601Z,100.00
2023-03-29T20:57:59.074Z,100.00
2023-03-29T21:02:17.354Z,100.00
2023-03-29T21:06:30.984Z,100.00
2023-03-29T21:10:43.548Z,100.00
2023-03-29T21:14:56.117Z,100.00
2023-03-29T21:19:10.463Z,100.00
2023-03-29T21:23:22.941Z,100.00
2023-03-29T21:27:35.629Z,100.00
2023-03-29T21:31:48.622Z,100.00
2023-03-29T21:36:01.849Z,100.00
2023-03-29T21:40:14.768Z,100.00
2023-03-29T21:44:27.412Z,100.00
2023-03-29T21:48:39.948Z,100.00
2023-03-29T21:52:52.453Z,100.00
2023-03-29T21:57:05.107Z,100.00
2023-03-29T22:01:17.751Z,100.00
2023-03-29T22:05:30.484Z,100.00
2023-03-29T22:09:44.310Z,100.00
2023-03-29T22:13:57.046Z,100.00
2023-03-29T22:18:10.858Z,100.00
2023-03-29T22:22:23.647Z,100.00
2023-03-29T22:26:36.341Z,100.00
2023-03-29T22:30:48.791Z,100.00
2023-03-29T22:35:01.433Z,100.00
2023-03-29T22:39:14.308Z,100.00
2023-03-29T22:43:26.792Z,100.00
2023-03-29T22:47:39.805Z,100.00
2023-03-29T22:51:52.570Z,100.00
2023-03-29T22:56:05.705Z,100.00
2023-03-29T23:00:18.903Z,100.00
2023-03-29T23:04:42.940Z,100.00
2023-03-29T23:08:55.791Z,100.00
2023-03-29T23:13:11.633Z,100.00
2023-03-29T23:17:24.859Z,100.00
2023-03-29T23:21:37.890Z,100.00
2023-03-29T23:25:53.113Z,100.00
2023-03-29T23:30:08.302Z,100.00
2023-03-29T23:34:21.090Z,100.00
2023-03-29T23:38:36.565Z,100.00
2023-03-29T23:42:49.986Z,100.00
2023-03-29T23:47:02.556Z,100.00
2023-03-29T23:51:16.108Z,100.00
2023-03-29T23:55:28.722Z,100.00
2023-03-29T23:59:46.939Z,100.00
